Progresso, New Mexico
Current Conditions -  °F | °C
As of 11:55 AM on Friday 31 Oct 2014 (Local Time) from K0E0 Reporting Station
Clear Clear  
Wind Chill: 15°   Ceiling: Unl
Heat Index: 15°   Visibility: 10mi
Dew Point: -2°   Wind: 10mph
Humidity: 32%   Direction: 150°SSE
Pressure: 30.43"   Gusts: 21mph
Location:  34.4464°N, 106.01°W
Report Text: K0E0 311755Z AUTO 15009G18KT 10SM CLR 15/M02 A3043 RMK AO2 T01461020 10147 21052
Loading
Personal Weather Stations






























Interactive Weather Map
Tropical Storm Tracking
New forecast layout! Learn more

10-Day Weather Forecast

Advertisements
Track Severe Weather on mobile